createdAt,value
2023-04-07T00:01:40.356Z,6.05
2023-04-07T00:04:07.412Z,6.09
2023-04-07T00:06:34.478Z,6.05
2023-04-07T00:09:01.781Z,6.05
2023-04-07T00:11:28.622Z,6.05
2023-04-07T00:13:55.764Z,5.96
2023-04-07T00:16:23.266Z,5.86
2023-04-07T00:18:50.167Z,5.78
2023-04-07T00:21:17.021Z,5.91
2023-04-07T00:23:43.983Z,5.90
2023-04-07T00:26:10.939Z,5.89
2023-04-07T00:28:38.023Z,5.90
2023-04-07T00:31:04.984Z,5.87
2023-04-07T00:33:31.996Z,5.88
2023-04-07T00:35:58.974Z,5.83
2023-04-07T00:38:26.061Z,5.85
2023-04-07T00:41:01.497Z,5.88
2023-04-07T00:43:28.523Z,5.97
2023-04-07T00:45:56.202Z,5.89
2023-04-07T00:48:23.377Z,5.90
2023-04-07T00:50:50.576Z,5.85
2023-04-07T00:53:17.926Z,5.73
2023-04-07T00:55:44.884Z,5.74
2023-04-07T00:58:11.969Z,5.70
2023-04-07T01:00:46.940Z,5.72
2023-04-07T01:03:22.534Z,5.72
2023-04-07T01:06:01.964Z,5.75
2023-04-07T01:08:46.821Z,5.75
2023-04-07T01:11:23.975Z,5.73
2023-04-07T01:13:53.250Z,5.73
2023-04-07T01:16:35.985Z,5.75
2023-04-07T01:19:23.724Z,5.70
2023-04-07T01:21:54.120Z,5.71
2023-04-07T01:24:45.169Z,5.75
2023-04-07T01:27:42.940Z,5.75
2023-04-07T01:30:13.350Z,5.74
2023-04-07T01:32:42.016Z,5.66
2023-04-07T01:35:13.659Z,5.59
2023-04-07T01:37:41.840Z,5.56
2023-04-07T01:40:09.702Z,5.54
2023-04-07T01:42:38.819Z,5.58
2023-04-07T01:45:07.482Z,5.56
2023-04-07T01:47:37.756Z,5.51
2023-04-07T01:50:06.673Z,5.52
2023-04-07T01:52:36.455Z,5.46
2023-04-07T01:55:05.878Z,5.52
2023-04-07T01:57:33.161Z,5.48
2023-04-07T02:00:00.231Z,5.50
2023-04-07T02:02:27.892Z,5.45
2023-04-07T02:05:05.879Z,5.50
2023-04-07T02:07:43.207Z,5.23
2023-04-07T02:10:13.996Z,5.30
2023-04-07T02:12:42.038Z,5.25
2023-04-07T02:15:11.455Z,5.24
2023-04-07T02:17:42.759Z,5.23
2023-04-07T02:20:12.668Z,5.33
2023-04-07T02:22:40.242Z,5.38
2023-04-07T02:25:30.227Z,5.44
2023-04-07T02:27:59.634Z,5.39
2023-04-07T02:30:27.794Z,5.33
2023-04-07T02:32:54.763Z,5.38
2023-04-07T02:35:21.849Z,5.34
2023-04-07T02:37:49.027Z,5.34
2023-04-07T02:40:16.602Z,5.24
2023-04-07T02:42:44.197Z,5.17
2023-04-07T02:45:11.945Z,5.27
2023-04-07T02:47:40.045Z,5.27
2023-04-07T02:50:07.691Z,5.19
2023-04-07T02:52:34.648Z,5.23
2023-04-07T02:55:01.953Z,5.16
2023-04-07T02:57:28.787Z,5.22
2023-04-07T02:59:58.236Z,5.18
2023-04-07T03:02:25.363Z,5.11
2023-04-07T03:04:53.340Z,5.21
2023-04-07T03:07:20.439Z,5.17
2023-04-07T03:09:47.350Z,5.16
2023-04-07T03:12:14.224Z,5.17
2023-04-07T03:14:41.024Z,5.21
2023-04-07T03:17:08.291Z,5.16
2023-04-07T03:19:35.251Z,5.10
2023-04-07T03:22:02.108Z,5.17
2023-04-07T03:24:29.074Z,5.08
2023-04-07T03:26:56.288Z,5.11
2023-04-07T03:29:23.227Z,5.09
2023-04-07T03:31:50.145Z,5.09
2023-04-07T03:34:17.013Z,5.10
2023-04-07T03:36:43.881Z,5.06
2023-04-07T03:39:10.713Z,4.97
2023-04-07T03:41:37.791Z,4.88
2023-04-07T03:44:04.603Z,4.83
2023-04-07T03:46:31.580Z,4.62
2023-04-07T03:48:58.503Z,4.56
2023-04-07T03:51:25.326Z,4.62
2023-04-07T03:53:52.286Z,4.66
2023-04-07T03:56:19.350Z,4.73
2023-04-07T03:58:46.838Z,4.72
2023-04-07T04:01:13.817Z,4.86
2023-04-07T04:03:40.810Z,4.88
2023-04-07T04:06:07.830Z,4.97
2023-04-07T04:08:34.725Z,4.94
2023-04-07T04:11:01.934Z,4.92
2023-04-07T04:13:28.784Z,4.90
2023-04-07T04:15:55.606Z,4.83
2023-04-07T04:18:22.431Z,4.78
2023-04-07T04:20:49.320Z,4.73
2023-04-07T04:23:16.504Z,4.75
2023-04-07T04:25:43.342Z,4.72
2023-04-07T04:28:10.179Z,4.57
2023-04-07T04:30:37.018Z,4.62
2023-04-07T04:33:03.961Z,4.69
2023-04-07T04:35:30.810Z,4.67
2023-04-07T04:37:57.669Z,4.66
2023-04-07T04:40:24.602Z,4.64
2023-04-07T04:42:51.564Z,4.66
2023-04-07T04:45:18.608Z,4.72
2023-04-07T04:47:45.875Z,4.73
2023-04-07T04:50:13.227Z,4.68
2023-04-07T04:52:40.745Z,4.68
2023-04-07T04:55:08.588Z,4.72
2023-04-07T04:57:36.368Z,4.77
2023-04-07T05:00:04.624Z,4.75
2023-04-07T05:02:31.676Z,4.76
2023-04-07T05:04:58.825Z,4.72
2023-04-07T05:07:26.294Z,4.77
2023-04-07T05:09:53.141Z,4.73
2023-04-07T05:12:19.976Z,4.74
2023-04-07T05:14:46.794Z,4.70
2023-04-07T05:17:13.658Z,4.73
2023-04-07T05:19:40.973Z,4.61
2023-04-07T05:22:07.798Z,4.61
2023-04-07T05:24:34.736Z,4.57
2023-04-07T05:27:02.080Z,4.54
2023-04-07T05:29:28.926Z,4.63
2023-04-07T05:31:55.863Z,4.60
2023-04-07T05:34:22.813Z,4.63
2023-04-07T05:36:49.626Z,4.64
2023-04-07T05:39:16.585Z,4.72
2023-04-07T05:41:43.497Z,4.65
2023-04-07T05:44:10.509Z,4.56
2023-04-07T05:46:37.318Z,4.67
2023-04-07T05:49:18.384Z,4.80
2023-04-07T05:51:47.646Z,4.71
2023-04-07T05:54:15.828Z,4.67
2023-04-07T05:56:42.716Z,4.78
2023-04-07T05:59:10.174Z,4.82
2023-04-07T06:01:37.014Z,4.83
2023-04-07T06:04:04.449Z,4.91
2023-04-07T06:06:31.540Z,4.95
2023-04-07T06:08:58.423Z,4.92
2023-04-07T06:11:27.423Z,4.97
2023-04-07T06:13:54.367Z,5.08
2023-04-07T06:16:21.408Z,5.12
2023-04-07T06:18:48.241Z,5.17
2023-04-07T06:21:15.796Z,5.31
2023-04-07T06:23:42.758Z,5.37
2023-04-07T06:26:12.324Z,5.46
2023-04-07T06:28:39.838Z,5.47
2023-04-07T06:31:08.964Z,5.50
2023-04-07T06:33:36.306Z,5.61
2023-04-07T06:36:03.271Z,5.47
2023-04-07T06:38:30.167Z,5.64
2023-04-07T06:40:56.969Z,5.71
2023-04-07T06:43:23.957Z,5.82
2023-04-07T06:45:50.943Z,5.95
2023-04-07T06:48:17.762Z,6.06
2023-04-07T06:50:49.862Z,6.15
2023-04-07T06:53:16.741Z,6.21
2023-04-07T06:55:43.826Z,6.29
2023-04-07T06:58:10.687Z,6.40
2023-04-07T07:00:37.537Z,6.47
2023-04-07T07:03:04.540Z,6.56
2023-04-07T07:05:31.793Z,6.51
2023-04-07T07:07:58.647Z,6.71
2023-04-07T07:10:25.494Z,6.69
2023-04-07T07:12:52.549Z,6.81
2023-04-07T07:15:19.419Z,6.85
2023-04-07T07:17:46.541Z,6.95
2023-04-07T07:20:13.489Z,7.02
2023-04-07T07:22:40.315Z,7.10
2023-04-07T07:25:07.622Z,7.02
2023-04-07T07:27:34.458Z,7.12
2023-04-07T07:30:01.457Z,7.10
2023-04-07T07:32:28.358Z,7.26
2023-04-07T07:34:55.244Z,7.31
2023-04-07T07:37:22.087Z,7.47
2023-04-07T07:39:48.921Z,7.52
2023-04-07T07:42:15.830Z,7.63
2023-04-07T07:44:42.711Z,7.79
2023-04-07T07:47:09.571Z,7.83
2023-04-07T07:49:36.550Z,7.91
2023-04-07T07:52:03.867Z,8.08
2023-04-07T07:54:30.964Z,8.03
2023-04-07T07:56:57.824Z,8.09
2023-04-07T07:59:24.655Z,8.26
2023-04-07T08:01:51.701Z,8.35
2023-04-07T08:04:18.679Z,8.49
2023-04-07T08:06:45.761Z,8.62
2023-04-07T08:09:12.588Z,8.72
2023-04-07T08:11:39.418Z,8.77
2023-04-07T08:14:08.087Z,8.97
2023-04-07T08:16:36.537Z,9.07
2023-04-07T08:19:03.452Z,9.06
2023-04-07T08:21:31.909Z,9.20
2023-04-07T08:23:58.852Z,9.45
2023-04-07T08:26:25.989Z,9.62
2023-04-07T08:28:53.815Z,9.81
2023-04-07T08:31:31.011Z,9.96
2023-04-07T08:33:59.074Z,10.21
2023-04-07T08:36:28.218Z,10.33
2023-04-07T08:38:55.175Z,10.44
2023-04-07T08:41:34.272Z,10.36
2023-04-07T08:44:01.774Z,10.44
2023-04-07T08:46:29.969Z,10.60
2023-04-07T08:48:58.318Z,10.65
2023-04-07T08:51:31.915Z,10.97
2023-04-07T08:54:08.633Z,10.95
2023-04-07T08:56:38.601Z,10.50
2023-04-07T08:59:07.528Z,10.58
2023-04-07T09:01:37.041Z,10.82
2023-04-07T09:04:05.861Z,10.93
2023-04-07T09:06:33.255Z,10.91
2023-04-07T09:09:01.730Z,11.01
2023-04-07T09:11:30.148Z,11.25
2023-04-07T09:13:57.562Z,11.47
2023-04-07T09:16:24.736Z,11.63
2023-04-07T09:18:53.470Z,11.65
2023-04-07T09:21:20.507Z,11.63
2023-04-07T09:23:48.155Z,11.59
2023-04-07T09:26:18.170Z,11.78
2023-04-07T09:28:46.957Z,11.89
2023-04-07T09:31:14.214Z,11.83
2023-04-07T09:33:41.224Z,11.71
2023-04-07T09:36:08.213Z,11.41
2023-04-07T09:38:40.240Z,11.59
2023-04-07T09:41:12.211Z,11.60
2023-04-07T09:43:42.515Z,11.60
2023-04-07T09:46:09.286Z,11.80
2023-04-07T09:48:36.146Z,11.73
2023-04-07T09:51:18.129Z,11.74
2023-04-07T09:53:50.702Z,11.72
2023-04-07T09:56:22.559Z,11.98
2023-04-07T09:58:52.039Z,12.07
2023-04-07T10:01:20.798Z,12.16
2023-04-07T10:03:49.419Z,12.06
2023-04-07T10:06:17.004Z,11.95
2023-04-07T10:08:44.435Z,12.03
2023-04-07T10:11:11.688Z,12.01
2023-04-07T10:13:41.590Z,12.21
2023-04-07T10:16:08.804Z,12.29
2023-04-07T10:18:37.264Z,12.29
2023-04-07T10:21:08.175Z,12.45
2023-04-07T10:23:50.663Z,12.45
2023-04-07T10:26:20.508Z,12.29
2023-04-07T10:28:52.263Z,12.26
2023-04-07T10:31:20.634Z,11.99
2023-04-07T10:33:53.508Z,11.96
2023-04-07T10:36:21.694Z,12.03
2023-04-07T10:39:07.247Z,11.94
2023-04-07T10:41:42.051Z,11.97
2023-04-07T10:44:12.263Z,11.75
2023-04-07T10:46:52.329Z,11.83
2023-04-07T10:49:19.392Z,11.69
2023-04-07T10:52:12.286Z,11.88
2023-04-07T10:54:40.675Z,11.78
2023-04-07T10:57:12.055Z,11.84
2023-04-07T11:00:12.226Z,11.87
2023-04-07T11:02:41.178Z,11.87
2023-04-07T11:05:09.166Z,11.89
2023-04-07T11:07:51.837Z,11.84
2023-04-07T11:10:19.679Z,11.75
2023-04-07T11:12:59.817Z,11.85
2023-04-07T11:15:27.289Z,11.79
2023-04-07T11:18:17.365Z,11.73
2023-04-07T11:20:56.622Z,11.70
2023-04-07T11:23:25.656Z,11.56
2023-04-07T11:26:03.315Z,11.48
2023-04-07T11:28:31.608Z,11.43
2023-04-07T11:31:00.422Z,11.29
2023-04-07T11:33:29.972Z,11.13
2023-04-07T11:35:59.303Z,11.04
2023-04-07T11:38:28.725Z,10.68
2023-04-07T11:40:57.267Z,10.62
2023-04-07T11:43:27.836Z,10.62
2023-04-07T11:46:12.600Z,10.70
2023-04-07T11:48:42.542Z,10.74
2023-04-07T11:51:28.186Z,10.81
2023-04-07T11:53:56.617Z,10.69
2023-04-07T11:56:23.618Z,10.68
2023-04-07T11:58:53.494Z,10.67
2023-04-07T12:01:21.632Z,10.51
2023-04-07T12:04:03.383Z,10.48
2023-04-07T12:06:39.226Z,10.46
2023-04-07T12:09:06.552Z,10.33
2023-04-07T12:11:34.783Z,10.38
2023-04-07T12:14:05.181Z,10.40
2023-04-07T12:16:32.320Z,10.23
2023-04-07T12:18:59.249Z,10.08
2023-04-07T12:21:26.907Z,10.21
2023-04-07T12:23:53.761Z,10.22
2023-04-07T12:26:23.353Z,10.12
2023-04-07T12:28:50.450Z,10.06
2023-04-07T12:31:17.424Z,10.09
2023-04-07T12:33:44.389Z,10.00
2023-04-07T12:36:11.381Z,9.96
2023-04-07T12:38:38.332Z,10.06
2023-04-07T12:41:05.468Z,10.16
2023-04-07T12:43:32.517Z,9.89
2023-04-07T12:45:59.389Z,9.92
2023-04-07T12:48:27.697Z,9.82
2023-04-07T12:50:55.169Z,9.95
2023-04-07T12:53:23.026Z,10.05
2023-04-07T12:55:50.633Z,10.09
2023-04-07T12:58:17.673Z,10.20
2023-04-07T13:00:44.754Z,10.19
2023-04-07T13:03:11.717Z,10.19
2023-04-07T13:05:38.979Z,10.18
2023-04-07T13:08:07.094Z,10.11
2023-04-07T13:10:34.431Z,10.08
2023-04-07T13:13:01.278Z,10.04
2023-04-07T13:15:29.016Z,10.10
2023-04-07T13:17:56.153Z,10.13
2023-04-07T13:20:23.275Z,10.14
2023-04-07T13:23:02.948Z,10.06
2023-04-07T13:25:34.248Z,10.16
2023-04-07T13:28:02.144Z,10.13
2023-04-07T13:30:29.021Z,10.11
2023-04-07T13:32:55.959Z,10.14
2023-04-07T13:35:23.039Z,10.18
2023-04-07T13:37:50.605Z,10.24
2023-04-07T13:40:17.570Z,10.10
2023-04-07T13:42:44.503Z,10.07
2023-04-07T13:45:11.578Z,10.06
2023-04-07T13:47:38.767Z,10.00
2023-04-07T13:50:06.626Z,10.09
2023-04-07T13:52:35.655Z,9.98
2023-04-07T13:55:04.424Z,10.10
2023-04-07T13:57:31.937Z,10.19
2023-04-07T13:59:59.150Z,10.08
2023-04-07T14:02:29.956Z,10.20
2023-04-07T14:04:58.415Z,10.14
2023-04-07T14:07:25.275Z,10.26
2023-04-07T14:09:52.138Z,10.20
2023-04-07T14:12:21.522Z,9.97
2023-04-07T14:14:52.340Z,10.13
2023-04-07T14:17:19.245Z,10.20
2023-04-07T14:19:46.747Z,10.19
2023-04-07T14:22:15.220Z,10.24
2023-04-07T14:24:42.074Z,10.09
2023-04-07T14:27:08.911Z,10.04
2023-04-07T14:29:35.789Z,10.08
2023-04-07T14:32:02.889Z,10.03
2023-04-07T14:34:29.706Z,9.90
2023-04-07T14:36:58.985Z,10.06
2023-04-07T14:39:25.912Z,9.91
2023-04-07T14:41:54.264Z,9.73
2023-04-07T14:44:21.485Z,9.65
2023-04-07T14:46:48.942Z,9.71
2023-04-07T14:49:16.180Z,9.78
2023-04-07T14:51:43.079Z,9.76
2023-04-07T14:54:09.969Z,9.60
2023-04-07T14:56:36.819Z,9.59
2023-04-07T14:59:03.677Z,9.53
2023-04-07T15:01:31.703Z,9.51
2023-04-07T15:04:01.093Z,9.42
2023-04-07T15:06:28.283Z,9.31
2023-04-07T15:08:55.407Z,9.28
2023-04-07T15:11:22.236Z,9.26
2023-04-07T15:13:49.579Z,9.27
2023-04-07T15:16:16.915Z,9.17
2023-04-07T15:18:47.368Z,9.16
2023-04-07T15:21:15.641Z,9.07
2023-04-07T15:23:42.556Z,8.86
2023-04-07T15:26:10.578Z,8.60
2023-04-07T15:28:38.402Z,8.56
2023-04-07T15:31:10.212Z,8.60
2023-04-07T15:33:39.035Z,8.61
2023-04-07T15:36:08.554Z,8.59
2023-04-07T15:38:36.008Z,8.56
2023-04-07T15:41:02.882Z,8.56
2023-04-07T15:43:29.887Z,8.50
2023-04-07T15:45:56.774Z,8.42
2023-04-07T15:48:23.879Z,8.39
2023-04-07T15:50:52.064Z,8.39
2023-04-07T15:53:18.891Z,8.32
2023-04-07T15:55:45.778Z,8.31
2023-04-07T15:58:12.628Z,8.27
2023-04-07T16:00:40.288Z,8.28
2023-04-07T16:03:07.320Z,8.28
2023-04-07T16:05:34.442Z,8.28
2023-04-07T16:08:01.305Z,8.08
2023-04-07T16:10:28.147Z,8.15
2023-04-07T16:12:55.663Z,8.22
2023-04-07T16:15:38.723Z,8.20
2023-04-07T16:18:09.233Z,8.19
2023-04-07T16:20:36.439Z,8.17
2023-04-07T16:23:03.272Z,8.07
2023-04-07T16:25:30.506Z,8.05
2023-04-07T16:27:57.410Z,8.07
2023-04-07T16:30:25.483Z,8.05
2023-04-07T16:32:52.500Z,8.07
2023-04-07T16:35:19.456Z,8.07
2023-04-07T16:37:46.759Z,7.91
2023-04-07T16:40:14.110Z,7.85
2023-04-07T16:42:41.052Z,7.82
2023-04-07T16:45:08.695Z,7.84
2023-04-07T16:47:35.870Z,7.88
2023-04-07T16:50:04.291Z,7.83
2023-04-07T16:52:31.962Z,7.83
2023-04-07T16:54:59.526Z,7.75
2023-04-07T16:57:26.408Z,7.71
2023-04-07T16:59:53.367Z,7.71
2023-04-07T17:02:20.380Z,7.71
2023-04-07T17:04:47.390Z,7.76
2023-04-07T17:07:14.249Z,7.76
2023-04-07T17:09:41.106Z,7.84
2023-04-07T17:12:08.064Z,7.85
2023-04-07T17:14:35.061Z,7.74
2023-04-07T17:17:02.343Z,7.75
2023-04-07T17:19:29.492Z,7.63
2023-04-07T17:21:56.663Z,7.57
2023-04-07T17:24:23.895Z,7.57
2023-04-07T17:26:51.034Z,7.42
2023-04-07T17:29:17.919Z,7.42
2023-04-07T17:31:49.718Z,7.33
2023-04-07T17:34:16.715Z,7.29
2023-04-07T17:36:43.517Z,7.21
2023-04-07T17:39:10.531Z,7.24
2023-04-07T17:41:38.662Z,7.37
2023-04-07T17:44:05.998Z,7.42
2023-04-07T17:46:32.993Z,7.46
2023-04-07T17:49:00.012Z,7.49
2023-04-07T17:51:27.790Z,7.51
2023-04-07T17:53:54.948Z,7.45
2023-04-07T17:56:21.884Z,7.46
2023-04-07T17:58:48.918Z,7.47
2023-04-07T18:01:17.077Z,7.50
2023-04-07T18:03:44.318Z,7.53
2023-04-07T18:06:16.875Z,7.49
2023-04-07T18:08:47.503Z,7.50
2023-04-07T18:11:15.137Z,7.44
2023-04-07T18:13:42.094Z,7.46
2023-04-07T18:16:11.924Z,7.45
2023-04-07T18:18:39.013Z,7.49
2023-04-07T18:21:07.274Z,7.43
2023-04-07T18:23:35.003Z,7.41
2023-04-07T18:26:06.775Z,7.40
2023-04-07T18:28:34.246Z,7.41
2023-04-07T18:31:07.912Z,7.38
2023-04-07T18:33:36.019Z,7.29
2023-04-07T18:36:08.081Z,7.32
2023-04-07T18:38:36.152Z,7.26
2023-04-07T18:41:03.326Z,7.31
2023-04-07T18:43:30.544Z,7.22
2023-04-07T18:45:57.492Z,7.27
2023-04-07T18:48:24.469Z,7.19
2023-04-07T18:50:53.616Z,7.16
2023-04-07T18:53:21.814Z,7.18
2023-04-07T18:55:49.237Z,7.11
2023-04-07T18:58:16.357Z,7.07
2023-04-07T19:00:44.605Z,7.08
2023-04-07T19:03:12.118Z,7.08
2023-04-07T19:05:42.488Z,7.05
2023-04-07T19:08:10.065Z,7.05
2023-04-07T19:10:36.983Z,6.93
2023-04-07T19:13:04.711Z,7.00
2023-04-07T19:15:40.884Z,6.91
2023-04-07T19:18:10.497Z,6.99
2023-04-07T19:20:37.346Z,6.95
2023-04-07T19:23:04.164Z,6.97
2023-04-07T19:25:31.523Z,6.93
2023-04-07T19:27:59.011Z,6.92
2023-04-07T19:30:26.082Z,6.83
2023-04-07T19:32:53.472Z,6.74
2023-04-07T19:35:20.634Z,6.77
2023-04-07T19:37:48.261Z,6.69
2023-04-07T19:40:15.461Z,6.63
2023-04-07T19:42:42.716Z,6.68
2023-04-07T19:45:10.468Z,6.51
2023-04-07T19:47:38.724Z,6.55
2023-04-07T19:50:06.963Z,6.53
2023-04-07T19:52:33.934Z,6.51
2023-04-07T19:55:02.937Z,6.55
2023-04-07T19:57:31.341Z,6.56
2023-04-07T19:59:58.420Z,6.65
2023-04-07T20:02:25.518Z,6.59
2023-04-07T20:04:53.972Z,6.42
2023-04-07T20:07:22.960Z,6.39
2023-04-07T20:09:54.191Z,6.56
2023-04-07T20:12:21.540Z,6.48
2023-04-07T20:14:48.442Z,6.41
2023-04-07T20:17:15.585Z,6.44
2023-04-07T20:19:42.503Z,6.39
2023-04-07T20:22:09.553Z,6.33
2023-04-07T20:24:36.690Z,6.24
2023-04-07T20:27:03.749Z,6.30
2023-04-07T20:29:30.672Z,6.29
2023-04-07T20:31:57.536Z,6.24
2023-04-07T20:34:24.447Z,6.06
2023-04-07T20:36:51.334Z,6.09
2023-04-07T20:39:18.151Z,6.21
2023-04-07T20:41:45.789Z,6.18
2023-04-07T20:44:12.632Z,6.25
2023-04-07T20:46:39.469Z,6.17
2023-04-07T20:49:08.117Z,6.15
2023-04-07T20:51:38.626Z,6.22
2023-04-07T20:54:05.485Z,6.20
2023-04-07T20:56:32.322Z,6.10
2023-04-07T20:58:59.372Z,6.14
2023-04-07T21:01:29.361Z,6.07
2023-04-07T21:03:56.422Z,6.14
2023-04-07T21:06:23.410Z,6.17
2023-04-07T21:08:50.427Z,6.13
2023-04-07T21:11:17.367Z,6.13
2023-04-07T21:13:44.179Z,6.13
2023-04-07T21:16:11.418Z,6.20
2023-04-07T21:18:38.416Z,6.15
2023-04-07T21:21:05.626Z,6.13
2023-04-07T21:23:32.512Z,6.14
2023-04-07T21:26:03.554Z,6.15
2023-04-07T21:28:30.519Z,6.13
2023-04-07T21:30:58.421Z,6.23
2023-04-07T21:33:25.496Z,6.29
2023-04-07T21:35:52.619Z,6.34
2023-04-07T21:38:19.503Z,6.32
2023-04-07T21:40:46.486Z,6.29
2023-04-07T21:43:13.393Z,6.28
2023-04-07T21:45:40.651Z,6.26
2023-04-07T21:48:08.073Z,6.28
2023-04-07T21:50:35.205Z,6.32
2023-04-07T21:53:02.082Z,6.28
2023-04-07T21:55:29.005Z,6.14
2023-04-07T21:57:55.936Z,6.09
2023-04-07T22:00:22.870Z,5.88
2023-04-07T22:02:50.012Z,5.86
2023-04-07T22:05:17.762Z,5.88
2023-04-07T22:07:45.831Z,5.68
2023-04-07T22:10:13.194Z,5.69
2023-04-07T22:12:40.612Z,5.62
2023-04-07T22:15:09.451Z,5.71
2023-04-07T22:17:36.477Z,5.75
2023-04-07T22:20:04.305Z,5.89
2023-04-07T22:22:31.216Z,6.01
2023-04-07T22:24:58.056Z,5.95
2023-04-07T22:27:24.975Z,6.04
2023-04-07T22:29:51.802Z,5.98
2023-04-07T22:32:18.640Z,5.94
2023-04-07T22:34:46.697Z,5.85
2023-04-07T22:37:13.763Z,5.93
2023-04-07T22:39:40.789Z,6.06
2023-04-07T22:42:07.678Z,6.03
2023-04-07T22:44:34.494Z,5.97
2023-04-07T22:47:01.405Z,5.97
2023-04-07T22:49:30.814Z,5.97
2023-04-07T22:51:57.667Z,6.01
2023-04-07T22:54:24.576Z,5.98
2023-04-07T22:56:51.471Z,5.94
2023-04-07T22:59:18.298Z,5.95
2023-04-07T23:01:45.301Z,5.94
2023-04-07T23:04:12.332Z,5.97
2023-04-07T23:06:40.799Z,5.95
2023-04-07T23:09:07.873Z,5.89
2023-04-07T23:11:34.672Z,5.90
2023-04-07T23:14:05.144Z,5.94
2023-04-07T23:16:33.967Z,5.87
2023-04-07T23:19:01.458Z,5.86
2023-04-07T23:21:30.144Z,5.80
2023-04-07T23:23:58.302Z,5.70
2023-04-07T23:26:25.136Z,5.72
2023-04-07T23:28:52.225Z,5.70
2023-04-07T23:31:19.147Z,5.68
2023-04-07T23:33:46.905Z,5.62
2023-04-07T23:36:14.118Z,5.50
2023-04-07T23:38:41.773Z,5.30
2023-04-07T23:41:08.836Z,5.20
2023-04-07T23:43:35.901Z,5.27
2023-04-07T23:46:03.102Z,5.30
2023-04-07T23:48:31.273Z,5.43
2023-04-07T23:51:00.154Z,5.38
2023-04-07T23:53:27.154Z,5.48
2023-04-07T23:55:54.278Z,5.46
2023-04-07T23:58:21.323Z,5.52
